Flight Track Log - Related Links

Times and Time Zones

All times are in EDT time to prevent confusion due to time zone crossing. See the KAP550 flight status page for this flight to view local times or setup timezone preferences in your user account.

Time Position Orientation Groundspeed Altitude Reporting Facility
EDT Latitude Longitude Course Direction KTS MPH feet Rate Location/Type
Wed 02:42:00 PM 44.1047 -74.4389 341° North  Level Estimated
Wed 02:43:00 PM 44.1342 -74.4531 341° North  Level Estimated
Wed 02:44:00 PM 44.1638 -74.4674 341° North  Level Estimated
Wed 02:45:00 PM 44.1934 -74.4816 341° North  Level Estimated
Wed 02:46:00 PM 44.2229 -74.4959 341° North  Level Estimated
Wed 02:47:00 PM 44.2525 -74.5102 341° North  Level Estimated
Wed 02:48:00 PM 44.2820 -74.5245 341° North  Level Estimated
Wed 02:49:00 PM 44.3116 -74.5388 341° North  Level Estimated
Wed 02:50:00 PM 44.3412 -74.5532 341° North  Level Estimated
Wed 02:51:00 PM 44.3707 -74.5675 341° North  Level Estimated
Wed 02:52:00 PM 44.4003 -74.5819 341° North  Level Estimated
Wed 02:53:00 PM 44.4298 -74.5963 341° North  Level Estimated
Wed 02:54:00 PM 44.4594 -74.6107 341° North  Level Estimated
Wed 02:55:00 PM 44.4889 -74.6251 341° North  Level Estimated
Wed 02:56:00 PM 44.5185 -74.6395 341° North  Level Estimated
Wed 02:57:00 PM 44.5480 -74.6539 341° North  Level Estimated
Wed 02:58:00 PM 44.5775 -74.6684 341° North  Level Estimated
Wed 02:59:00 PM 44.6071 -74.6829 341° North  Level Estimated
Wed 03:00:00 PM 44.6366 -74.6973 341° North  Level Estimated
Wed 03:01:00 PM 44.6661 -74.7118 341° North  Level Estimated
Wed 03:02:00 PM 44.6957 -74.7263 341° North  Level Estimated
Wed 03:03:00 PM 44.7252 -74.7409 341° North  Level Estimated
Wed 03:04:00 PM 44.7547 -74.7554 341° North  Level Estimated
Wed 03:05:00 PM 44.7843 -74.7700 341° North  Level Estimated
Wed 03:06:00 PM 44.8138 -74.7845 341° North  Level Estimated
Wed 03:07:00 PM 44.8433 -74.7991 341° North  Level Estimated
Wed 03:08:00 PM 44.8728 -74.8137 341° North  Level Estimated
Wed 03:09:00 PM 44.9024 -74.8283 341° North  Level Estimated
Wed 03:10:00 PM 44.9319 -74.8430 341° North  Level Estimated
Wed 03:11:00 PM 44.9362 -74.8451 341° North  Level Estimated
Wed 03:12:00 PM 44.9362 -74.8451 15° North  Level Estimated
Wed 03:13:00 PM 44.9362 -74.8451 15° North  Level Estimated
Wed 03:14:00 PM 44.9362 -74.8451 15° North  Level Estimated
Wed 03:15:00 PM 44.9362 -74.8451 15° North  Level Estimated
Wed 03:16:00 PM 44.9362 -74.8451 15° North  Level Estimated
Wed 03:17:00 PM 44.9362 -74.8451 15° North  Level Estimated
Wed 03:18:00 PM 44.9362 -74.8451 15° North  Level Estimated
Wed 03:19:00 PM 44.9362 -74.8451 15° North  Level Estimated
Wed 03:20:00 PM 44.9362 -74.8451 15° North  Level Estimated
Wed 03:21:00 PM 44.9362 -74.8451 15° North  Level Estimated
Wed 03:22:00 PM 44.9362 -74.8451 15° North  Level Estimated
Wed 03:22:44 PM 43.3967 -74.1258 15° North 157 181 6,400  Level Boston Center
Wed 03:23:00 PM 44.9362 -74.8451 15° North  Level Estimated
Wed 03:23:44 PM 43.4483 -74.1531 339° North 178 205 6,400  Level Boston Center
Wed 03:24:00 PM 44.9362 -74.8451 15° North  Level Estimated
Wed 03:24:44 PM 43.5022 -74.1747 344° North 192 221 6,400  Level Boston Center
Wed 03:25:00 PM 44.9362 -74.8451 15° North  Level Estimated
Wed 03:25:44 PM 43.5519 -74.1989 341° North 192 221 6,400  Level Boston Center
Wed 03:26:00 PM 44.9362 -74.8451 15° North  Level Estimated
Wed 03:26:44 PM 43.6036 -74.2236 341° North 192 221 6,400  Level Boston Center
Wed 03:27:00 PM 44.9362 -74.8451 15° North  Level Estimated
Wed 03:27:44 PM 43.6594 -74.2481 342° North 192 221 6,400  Level Boston Center
Wed 03:28:44 PM 43.7133 -74.2756 340° North 192 221 6,400 -200 Level Boston Center
Wed 03:29:44 PM 43.7650 -74.2972 343° North 192 221 6,000 -200 Descending Boston Center
Wed 03:30:44 PM 43.8208 -74.3250 340° North 192 221 6,000  Level Boston Center
Wed 03:31:44 PM 43.8725 -74.3467 343° North 192 221 6,000 50 Level Boston Center
Wed 03:32:44 PM 43.9222 -74.3683 343° North 192 221 6,100 50 Climbing Boston Center
Wed 03:33:44 PM 43.9739 -74.3903 343° North 192 221 6,100 -50 Level Boston Center
Wed 03:34:44 PM 44.0236 -74.4150 340° North 187 215 6,000 -150 Descending Boston Center
Wed 03:35:44 PM 44.0753 -74.4397 341° North 187 215 5,800 -200 Descending Boston Center
Wed 03:36:44 PM 44.1247 -74.4617 342° North 187 215 5,600 -250 Descending Boston Center
Wed 03:37:44 PM 44.1786 -74.4867 342° North 187 215 5,300 -300 Descending Boston Center
Wed 03:38:44 PM 44.2261 -74.5114 340° North 187 215 5,000 -300 Descending Boston Center
Wed 03:39:44 PM 44.2778 -74.5336 343° North 187 215 4,700 -200 Descending Boston Center
Wed 03:40:44 PM 44.3294 -74.5586 341° North 192 221 4,600 -100 Descending Boston Center
Wed 03:41:44 PM 44.3811 -74.5781 345° North 192 221 4,500 -50 Descending Boston Center
Wed 03:42:44 PM 44.4306 -74.6031 340° North 186 214 4,500 -250 Level Boston Center
Wed 03:43:44 PM 44.4739 -74.6278 338° Northwest 186 214 4,000 -450 Descending Boston Center
Wed 03:44:44 PM 44.5317 -74.6533 343° North 186 214 3,600 -400 Descending Boston Center

Login

Don't have an account? Register now (free) for customized features, flight alerts, and more!